createdAt,value
2023-01-08T00:02:27.202Z,4.33
2023-01-08T00:04:53.653Z,4.43
2023-01-08T00:07:20.411Z,3.91
2023-01-08T00:09:48.017Z,3.63
2023-01-08T00:12:14.370Z,3.91
2023-01-08T00:14:40.748Z,3.24
2023-01-08T00:17:09.710Z,2.42
2023-01-08T00:19:36.177Z,2.08
2023-01-08T00:22:02.568Z,2.11
2023-01-08T00:24:28.998Z,2.03
2023-01-08T00:26:55.363Z,2.36
2023-01-08T00:29:21.806Z,2.79
2023-01-08T00:31:48.208Z,2.33
2023-01-08T00:34:14.631Z,2.33
2023-01-08T00:36:41.086Z,2.04
2023-01-08T00:39:07.452Z,1.90
2023-01-08T00:41:33.800Z,1.81
2023-01-08T00:44:00.364Z,2.02
2023-01-08T00:46:26.750Z,2.05
2023-01-08T00:48:53.125Z,2.23
2023-01-08T00:51:19.483Z,2.06
2023-01-08T00:53:45.935Z,1.90
2023-01-08T00:56:12.321Z,2.00
2023-01-08T00:58:38.744Z,1.91
2023-01-08T01:01:05.153Z,2.05
2023-01-08T01:03:31.569Z,2.04
2023-01-08T01:05:58.037Z,1.69
2023-01-08T01:08:24.502Z,1.72
2023-01-08T01:10:50.930Z,1.60
2023-01-08T01:13:17.343Z,1.83
2023-01-08T01:15:43.846Z,1.84
2023-01-08T01:18:10.234Z,1.93
2023-01-08T01:20:39.143Z,2.11
2023-01-08T01:23:05.671Z,2.36
2023-01-08T01:25:32.071Z,2.23
2023-01-08T01:27:58.436Z,2.26
2023-01-08T01:30:24.838Z,2.41
2023-01-08T01:32:51.194Z,2.70
2023-01-08T01:35:17.664Z,2.68
2023-01-08T01:37:44.115Z,2.70
2023-01-08T01:40:10.676Z,2.94
2023-01-08T01:42:37.093Z,2.73
2023-01-08T01:45:03.544Z,2.74
2023-01-08T01:47:29.966Z,2.95
2023-01-08T01:49:56.382Z,2.59
2023-01-08T01:52:22.753Z,2.63
2023-01-08T01:54:49.113Z,3.21
2023-01-08T01:57:15.529Z,3.04
2023-01-08T01:59:41.866Z,2.82
2023-01-08T02:02:09.501Z,3.03
2023-01-08T02:04:35.953Z,3.88
2023-01-08T02:07:02.332Z,3.81
2023-01-08T02:09:28.727Z,4.20
2023-01-08T02:11:55.116Z,4.24
2023-01-08T02:14:21.475Z,4.10
2023-01-08T02:16:47.845Z,3.25
2023-01-08T02:19:14.264Z,2.70
2023-01-08T02:21:40.687Z,2.75
2023-01-08T02:24:07.031Z,2.58
2023-01-08T02:26:33.428Z,2.25
2023-01-08T02:28:59.851Z,2.51
2023-01-08T02:31:26.182Z,2.17
2023-01-08T02:33:52.558Z,1.91
2023-01-08T02:36:18.924Z,2.14
2023-01-08T02:38:45.282Z,2.27
2023-01-08T02:41:11.625Z,2.25
2023-01-08T02:43:38.079Z,2.33
2023-01-08T02:46:04.588Z,2.43
2023-01-08T02:48:31.001Z,2.38
2023-01-08T02:50:57.357Z,2.23
2023-01-08T02:53:23.912Z,2.18
2023-01-08T02:55:50.268Z,1.97
2023-01-08T02:58:16.648Z,1.90
2023-01-08T03:00:43.057Z,1.62
2023-01-08T03:03:09.398Z,1.41
2023-01-08T03:05:35.772Z,1.49
2023-01-08T03:08:02.195Z,1.65
2023-01-08T03:10:28.593Z,1.69
2023-01-08T03:12:55.010Z,1.74
2023-01-08T03:15:21.391Z,1.71
2023-01-08T03:17:47.767Z,1.71
2023-01-08T03:20:14.144Z,1.66
2023-01-08T03:22:40.540Z,1.63
2023-01-08T03:25:06.997Z,1.56
2023-01-08T03:27:33.331Z,1.63
2023-01-08T03:29:59.731Z,1.68
2023-01-08T03:32:26.086Z,1.48
2023-01-08T03:34:52.422Z,1.65
2023-01-08T03:37:18.781Z,1.92
2023-01-08T03:39:45.173Z,2.19
2023-01-08T03:42:11.524Z,2.05
2023-01-08T03:44:37.878Z,1.93
2023-01-08T03:47:04.238Z,1.87
2023-01-08T03:49:30.577Z,1.79
2023-01-08T03:51:56.928Z,1.96
2023-01-08T03:54:23.288Z,2.15
2023-01-08T03:56:49.795Z,2.06
2023-01-08T03:59:16.167Z,2.25
2023-01-08T04:01:42.619Z,2.27
2023-01-08T04:04:09.230Z,2.19
2023-01-08T04:06:35.687Z,1.83
2023-01-08T04:09:02.056Z,1.93
2023-01-08T04:11:28.523Z,2.33
2023-01-08T04:13:54.939Z,2.05
2023-01-08T04:16:21.304Z,2.28
2023-01-08T04:18:47.672Z,2.00
2023-01-08T04:21:14.051Z,2.21
2023-01-08T04:23:40.428Z,2.46
2023-01-08T04:26:06.839Z,2.94
2023-01-08T04:28:33.249Z,2.40
2023-01-08T04:30:59.655Z,2.16
2023-01-08T04:33:26.267Z,2.32
2023-01-08T04:35:52.703Z,2.65
2023-01-08T04:38:19.112Z,2.24
2023-01-08T04:40:45.516Z,1.88
2023-01-08T04:43:11.906Z,2.21
2023-01-08T04:45:38.288Z,2.30
2023-01-08T04:48:04.651Z,2.04
2023-01-08T04:50:30.995Z,2.21
2023-01-08T04:52:57.340Z,2.12
2023-01-08T04:55:23.735Z,2.14
2023-01-08T04:57:50.280Z,1.85
2023-01-08T05:00:16.650Z,1.85
2023-01-08T05:02:43.378Z,1.90
2023-01-08T05:05:09.875Z,1.90
2023-01-08T05:07:36.208Z,1.87
2023-01-08T05:10:02.541Z,1.80
2023-01-08T05:12:28.935Z,1.75
2023-01-08T05:14:55.280Z,1.93
2023-01-08T05:17:21.661Z,2.11
2023-01-08T05:19:48.055Z,2.26
2023-01-08T05:22:14.457Z,2.43
2023-01-08T05:24:40.870Z,2.53
2023-01-08T05:27:07.220Z,2.40
2023-01-08T05:29:33.577Z,2.17
2023-01-08T05:31:59.906Z,2.43
2023-01-08T05:34:26.253Z,2.57
2023-01-08T05:36:52.586Z,2.76
2023-01-08T05:39:18.961Z,2.98
2023-01-08T05:41:45.292Z,2.72
2023-01-08T05:44:11.652Z,2.55
2023-01-08T05:46:38.104Z,2.79
2023-01-08T05:49:04.529Z,3.01
2023-01-08T05:51:33.429Z,2.93
2023-01-08T05:53:59.869Z,3.46
2023-01-08T05:56:26.440Z,3.37
2023-01-08T05:58:52.789Z,3.14
2023-01-08T06:01:19.227Z,3.56
2023-01-08T06:03:45.653Z,4.90
2023-01-08T06:06:12.045Z,4.37
2023-01-08T06:08:38.430Z,3.17
2023-01-08T06:11:04.805Z,2.70
2023-01-08T06:13:31.180Z,2.23
2023-01-08T06:15:57.624Z,2.43
2023-01-08T06:18:24.199Z,2.53
2023-01-08T06:20:50.601Z,2.38
2023-01-08T06:23:17.015Z,2.23
2023-01-08T06:25:43.343Z,2.28
2023-01-08T06:28:09.721Z,2.45
2023-01-08T06:30:36.120Z,2.14
2023-01-08T06:33:02.498Z,2.63
2023-01-08T06:35:28.890Z,2.57
2023-01-08T06:37:55.209Z,2.41
2023-01-08T06:40:21.592Z,2.49
2023-01-08T06:42:48.016Z,2.37
2023-01-08T06:45:14.475Z,2.35
2023-01-08T06:47:40.872Z,2.31
2023-01-08T06:50:07.336Z,3.49
2023-01-08T06:52:33.746Z,7.33
2023-01-08T06:55:00.170Z,8.27
2023-01-08T06:57:26.497Z,7.97
2023-01-08T06:59:52.914Z,3.27
2023-01-08T07:02:19.474Z,2.34
2023-01-08T07:04:47.332Z,2.41
2023-01-08T07:07:13.728Z,2.32
2023-01-08T07:09:40.078Z,2.35
2023-01-08T07:12:06.460Z,2.69
2023-01-08T07:14:32.875Z,3.73
2023-01-08T07:16:59.274Z,3.20
2023-01-08T07:19:25.627Z,2.64
2023-01-08T07:21:51.987Z,3.30
2023-01-08T07:24:18.401Z,5.68
2023-01-08T07:26:44.739Z,5.49
2023-01-08T07:29:11.073Z,3.70
2023-01-08T07:31:40.520Z,4.12
2023-01-08T07:34:06.988Z,4.55
2023-01-08T07:36:33.380Z,3.18
2023-01-08T07:38:59.725Z,3.16
2023-01-08T07:41:26.059Z,2.72
2023-01-08T07:43:52.653Z,2.43
2023-01-08T07:46:19.087Z,2.25
2023-01-08T07:48:45.465Z,1.97
2023-01-08T07:51:11.803Z,2.17
2023-01-08T07:53:38.134Z,2.00
2023-01-08T07:56:04.569Z,1.92
2023-01-08T07:58:30.913Z,2.04
2023-01-08T08:00:59.148Z,2.02
2023-01-08T08:03:25.709Z,2.27
2023-01-08T08:05:52.140Z,2.07
2023-01-08T08:08:18.512Z,2.12
2023-01-08T08:10:44.912Z,2.33
2023-01-08T08:13:11.241Z,2.22
2023-01-08T08:15:37.763Z,2.35
2023-01-08T08:18:04.114Z,2.44
2023-01-08T08:20:30.440Z,2.22
2023-01-08T08:22:56.764Z,2.06
2023-01-08T08:25:23.362Z,2.17
2023-01-08T08:27:49.714Z,1.82
2023-01-08T08:30:16.036Z,1.75
2023-01-08T08:32:42.516Z,1.75
2023-01-08T08:35:08.867Z,1.97
2023-01-08T08:37:35.288Z,2.27
2023-01-08T08:40:01.648Z,2.03
2023-01-08T08:42:28.103Z,2.39
2023-01-08T08:44:54.494Z,2.53
2023-01-08T08:47:20.839Z,2.87
2023-01-08T08:49:47.225Z,3.09
2023-01-08T08:52:13.599Z,2.98
2023-01-08T08:54:39.925Z,2.75
2023-01-08T08:57:06.429Z,2.91
2023-01-08T08:59:32.768Z,2.45
2023-01-08T09:01:59.133Z,2.33
2023-01-08T09:04:25.619Z,2.27
2023-01-08T09:06:53.399Z,2.21
2023-01-08T09:09:19.747Z,2.00
2023-01-08T09:11:46.182Z,1.95
2023-01-08T09:14:12.578Z,2.19
2023-01-08T09:16:39.009Z,1.97
2023-01-08T09:19:05.349Z,2.04
2023-01-08T09:21:31.676Z,2.00
2023-01-08T09:23:58.244Z,1.92
2023-01-08T09:26:24.832Z,2.19
2023-01-08T09:28:51.344Z,2.25
2023-01-08T09:31:17.814Z,2.34
2023-01-08T09:33:45.431Z,2.38
2023-01-08T09:36:11.873Z,1.95
2023-01-08T09:38:38.249Z,2.02
2023-01-08T09:41:04.615Z,7.55
2023-01-08T09:43:30.972Z,21.72
2023-01-08T09:45:57.344Z,5.92
2023-01-08T09:48:23.688Z,8.18
2023-01-08T09:50:50.031Z,10.27
2023-01-08T09:53:16.348Z,2.60
2023-01-08T09:55:42.707Z,1.90
2023-01-08T09:58:09.033Z,1.21
2023-01-08T10:00:35.408Z,1.26
2023-01-08T10:03:01.946Z,1.49
2023-01-08T10:05:28.340Z,1.48
2023-01-08T10:07:54.742Z,1.41
2023-01-08T10:10:21.055Z,2.79
2023-01-08T10:12:47.398Z,2.16
2023-01-08T10:15:13.742Z,1.55
2023-01-08T10:17:40.081Z,1.32
2023-01-08T10:20:06.528Z,1.26
2023-01-08T10:22:32.853Z,1.18
2023-01-08T10:24:59.185Z,1.13
2023-01-08T10:27:25.701Z,1.10
2023-01-08T10:29:52.110Z,1.07
2023-01-08T10:32:18.463Z,1.13
2023-01-08T10:34:44.896Z,1.21
2023-01-08T10:37:11.227Z,1.21
2023-01-08T10:39:37.635Z,1.37
2023-01-08T10:42:04.140Z,1.19
2023-01-08T10:44:30.496Z,1.19
2023-01-08T10:46:56.837Z,0.94
2023-01-08T10:49:23.169Z,1.02
2023-01-08T10:51:49.494Z,1.15
2023-01-08T10:54:15.802Z,1.30
2023-01-08T10:56:42.121Z,1.82
2023-01-08T10:59:08.450Z,3.97
2023-01-08T11:01:34.914Z,2.94
2023-01-08T11:04:01.421Z,1.17
2023-01-08T11:06:27.859Z,1.37
2023-01-08T11:08:54.216Z,2.10
2023-01-08T11:11:20.563Z,1.67
2023-01-08T11:13:46.901Z,1.37
2023-01-08T11:16:13.297Z,1.26
2023-01-08T11:18:39.744Z,1.44
2023-01-08T11:21:06.142Z,3.25
2023-01-08T11:23:32.507Z,3.19
2023-01-08T11:25:58.849Z,1.83
2023-01-08T11:28:25.194Z,1.65
2023-01-08T11:30:51.544Z,2.48
2023-01-08T11:33:18.025Z,1.70
2023-01-08T11:35:44.402Z,1.51
2023-01-08T11:38:10.766Z,1.54
2023-01-08T11:40:37.136Z,1.40
2023-01-08T11:43:03.491Z,1.38
2023-01-08T11:45:29.922Z,1.64
2023-01-08T11:47:59.134Z,1.89
2023-01-08T11:50:25.465Z,1.51
2023-01-08T11:52:51.796Z,1.38
2023-01-08T11:55:18.122Z,1.36
2023-01-08T11:57:44.469Z,1.37
2023-01-08T12:00:11.258Z,1.27
2023-01-08T12:02:38.490Z,1.43
2023-01-08T12:05:04.827Z,1.58
2023-01-08T12:07:31.229Z,1.25
2023-01-08T12:09:57.536Z,1.23
2023-01-08T12:12:23.970Z,1.13
2023-01-08T12:14:50.312Z,0.95
2023-01-08T12:17:16.645Z,0.99
2023-01-08T12:19:43.033Z,1.09
2023-01-08T12:22:09.354Z,0.92
2023-01-08T12:24:35.709Z,0.86
2023-01-08T12:27:02.049Z,0.87
2023-01-08T12:29:28.427Z,0.85
2023-01-08T12:32:02.563Z,0.73
2023-01-08T12:34:30.397Z,0.94
2023-01-08T12:36:56.796Z,1.34
2023-01-08T12:39:25.446Z,1.20
2023-01-08T12:41:51.777Z,1.53
2023-01-08T12:44:18.189Z,1.40
2023-01-08T12:46:44.572Z,1.38
2023-01-08T12:49:10.951Z,1.53
2023-01-08T12:51:37.388Z,1.19
2023-01-08T12:54:04.990Z,1.19
2023-01-08T12:56:31.389Z,1.40
2023-01-08T12:58:57.753Z,1.32
2023-01-08T13:01:24.245Z,1.30
2023-01-08T13:03:50.628Z,1.20
2023-01-08T13:06:16.987Z,0.99
2023-01-08T13:08:43.314Z,1.05
2023-01-08T13:11:09.777Z,0.97
2023-01-08T13:13:36.106Z,1.13
2023-01-08T13:16:02.441Z,1.15
2023-01-08T13:18:31.907Z,1.20
2023-01-08T13:20:58.339Z,1.31
2023-01-08T13:23:24.704Z,1.12
2023-01-08T13:25:54.043Z,1.42
2023-01-08T13:28:20.473Z,1.41
2023-01-08T13:30:46.815Z,1.46
2023-01-08T13:33:13.189Z,1.52
2023-01-08T13:35:42.576Z,1.28
2023-01-08T13:38:08.898Z,1.86
2023-01-08T13:40:35.264Z,1.84
2023-01-08T13:43:01.613Z,2.19
2023-01-08T13:45:27.989Z,1.90
2023-01-08T13:47:54.479Z,1.89
2023-01-08T13:50:20.878Z,2.00
2023-01-08T13:52:47.294Z,1.68
2023-01-08T13:55:13.632Z,1.40
2023-01-08T13:57:40.021Z,1.31
2023-01-08T14:00:06.428Z,1.39
2023-01-08T14:02:32.875Z,1.67
2023-01-08T14:04:59.251Z,2.51
2023-01-08T14:07:25.701Z,2.70
2023-01-08T14:09:52.079Z,2.29
2023-01-08T14:12:18.430Z,2.32
2023-01-08T14:14:44.784Z,2.74
2023-01-08T14:17:11.137Z,3.33
2023-01-08T14:19:37.589Z,3.25
2023-01-08T14:22:03.924Z,4.00
2023-01-08T14:24:30.294Z,2.83
2023-01-08T14:26:56.639Z,2.05
2023-01-08T14:29:23.036Z,4.22
2023-01-08T14:31:49.524Z,2.04
2023-01-08T14:34:15.946Z,2.33
2023-01-08T14:36:42.293Z,3.09
2023-01-08T14:39:08.660Z,1.90
2023-01-08T14:41:35.027Z,1.19
2023-01-08T14:44:01.352Z,1.49
2023-01-08T14:46:27.752Z,2.93
2023-01-08T14:48:54.180Z,2.18
2023-01-08T14:51:20.556Z,2.21
2023-01-08T14:53:46.891Z,2.28
2023-01-08T14:56:13.266Z,2.14
2023-01-08T14:58:39.727Z,2.14
2023-01-08T15:01:06.095Z,1.80
2023-01-08T15:03:32.483Z,1.93
2023-01-08T15:05:58.836Z,1.54
2023-01-08T15:08:25.218Z,1.36
2023-01-08T15:10:51.603Z,1.47
2023-01-08T15:13:17.928Z,1.48
2023-01-08T15:15:44.277Z,1.31
2023-01-08T15:18:10.650Z,1.32
2023-01-08T15:20:37.050Z,1.44
2023-01-08T15:23:03.395Z,1.54
2023-01-08T15:25:29.763Z,1.86
2023-01-08T15:27:56.092Z,2.15
2023-01-08T15:30:22.427Z,4.66
2023-01-08T15:32:48.787Z,5.78
2023-01-08T15:35:15.142Z,4.13
2023-01-08T15:37:41.529Z,2.70
2023-01-08T15:40:07.899Z,1.77
2023-01-08T15:42:34.277Z,2.02
2023-01-08T15:45:00.709Z,1.72
2023-01-08T15:47:27.046Z,1.64
2023-01-08T15:49:56.508Z,1.73
2023-01-08T15:52:22.916Z,2.30
2023-01-08T15:54:49.307Z,2.12
2023-01-08T15:57:15.683Z,1.29
2023-01-08T15:59:42.051Z,1.27
2023-01-08T16:02:08.674Z,1.24
2023-01-08T16:04:35.146Z,1.34
2023-01-08T16:07:01.635Z,1.73
2023-01-08T16:09:28.018Z,2.43
2023-01-08T16:11:54.408Z,2.72
2023-01-08T16:14:20.771Z,3.13
2023-01-08T16:16:47.237Z,2.01
2023-01-08T16:19:13.651Z,1.18
2023-01-08T16:21:40.095Z,0.90
2023-01-08T16:24:06.666Z,1.06
2023-01-08T16:26:33.090Z,1.24
2023-01-08T16:28:59.438Z,1.89
2023-01-08T16:31:25.862Z,2.57
2023-01-08T16:33:52.268Z,3.36
2023-01-08T16:36:18.694Z,2.14
2023-01-08T16:38:45.091Z,1.73
2023-01-08T16:41:12.733Z,1.57
2023-01-08T16:43:39.196Z,2.03
2023-01-08T16:46:05.654Z,2.17
2023-01-08T16:48:32.091Z,2.29
2023-01-08T16:50:58.531Z,1.96
2023-01-08T16:53:24.993Z,1.70
2023-01-08T16:55:51.399Z,1.53
2023-01-08T16:58:18.837Z,1.89
2023-01-08T17:00:45.261Z,1.37
2023-01-08T17:03:11.644Z,2.08
2023-01-08T17:05:38.073Z,2.92
2023-01-08T17:08:04.466Z,2.38
2023-01-08T17:10:30.964Z,2.09
2023-01-08T17:12:57.308Z,1.81
2023-01-08T17:15:23.720Z,1.47
2023-01-08T17:17:50.118Z,1.72
2023-01-08T17:20:17.714Z,1.46
2023-01-08T17:22:44.101Z,1.63
2023-01-08T17:25:10.442Z,1.76
2023-01-08T17:27:36.931Z,2.12
2023-01-08T17:30:03.304Z,1.84
2023-01-08T17:32:29.843Z,1.59
2023-01-08T17:34:56.210Z,1.67
2023-01-08T17:37:22.563Z,1.84
2023-01-08T17:39:48.945Z,1.99
2023-01-08T17:42:15.311Z,1.39
2023-01-08T17:44:41.651Z,1.36
2023-01-08T17:47:08.070Z,1.48
2023-01-08T17:49:34.444Z,1.57
2023-01-08T17:52:00.783Z,1.46
2023-01-08T17:54:27.125Z,2.65
2023-01-08T17:56:53.475Z,3.22
2023-01-08T17:59:19.838Z,2.46
2023-01-08T18:01:48.433Z,1.85
2023-01-08T18:04:14.871Z,1.65
2023-01-08T18:06:41.285Z,1.85
2023-01-08T18:09:07.652Z,2.65
2023-01-08T18:11:34.022Z,6.20
2023-01-08T18:14:00.461Z,4.07
2023-01-08T18:16:26.860Z,4.95
2023-01-08T18:18:53.268Z,3.75
2023-01-08T18:21:19.636Z,3.41
2023-01-08T18:23:46.102Z,3.81
2023-01-08T18:26:12.756Z,3.85
2023-01-08T18:28:39.163Z,2.13
2023-01-08T18:31:05.523Z,2.21
2023-01-08T18:33:31.879Z,1.70
2023-01-08T18:35:58.259Z,1.52
2023-01-08T18:38:24.684Z,1.52
2023-01-08T18:40:54.268Z,1.82
2023-01-08T18:43:20.840Z,2.22
2023-01-08T18:45:47.751Z,3.00
2023-01-08T18:48:14.220Z,9.07
2023-01-08T18:50:40.588Z,19.92
2023-01-08T18:53:07.016Z,12.20
2023-01-08T18:55:33.484Z,17.30
2023-01-08T18:57:59.836Z,20.20
2023-01-08T19:00:37.403Z,17.18
2023-01-08T19:03:04.420Z,23.81
2023-01-08T19:05:30.847Z,18.10
2023-01-08T19:07:57.226Z,10.86
2023-01-08T19:10:23.715Z,7.75
2023-01-08T19:12:50.089Z,6.80
2023-01-08T19:15:16.487Z,8.35
2023-01-08T19:17:42.881Z,17.76
2023-01-08T19:20:15.735Z,17.60
2023-01-08T19:22:44.663Z,41.14
2023-01-08T19:25:11.208Z,19.71
2023-01-08T19:27:37.707Z,14.12
2023-01-08T19:30:13.200Z,10.40
2023-01-08T19:32:39.560Z,4.15
2023-01-08T19:35:06.023Z,3.94
2023-01-08T19:37:46.685Z,4.70
2023-01-08T19:40:13.116Z,5.32
2023-01-08T19:42:39.541Z,4.74
2023-01-08T19:45:06.959Z,3.78
2023-01-08T19:47:33.575Z,3.25
2023-01-08T19:52:35.216Z,3.27
2023-01-08T19:55:01.647Z,3.39
2023-01-08T19:57:28.287Z,3.82
2023-01-08T19:59:54.631Z,4.20
2023-01-08T20:02:21.187Z,4.79
2023-01-08T20:04:47.660Z,3.40
2023-01-08T20:07:14.072Z,3.47
2023-01-08T20:09:46.320Z,4.04
2023-01-08T20:12:12.681Z,4.04
2023-01-08T20:14:39.183Z,2.82
2023-01-08T20:17:05.725Z,3.01
2023-01-08T20:19:32.059Z,4.02
2023-01-08T20:21:58.543Z,10.27
2023-01-08T20:24:24.894Z,7.67
2023-01-08T20:26:51.281Z,3.53
2023-01-08T20:29:17.634Z,3.66
2023-01-08T20:31:44.180Z,3.06
2023-01-08T20:34:10.689Z,2.73
2023-01-08T20:36:37.087Z,2.98
2023-01-08T20:39:03.456Z,3.66
2023-01-08T20:44:13.379Z,4.53
2023-01-08T20:46:39.755Z,3.92
2023-01-08T20:49:08.946Z,3.59
2023-01-08T20:51:35.321Z,2.99
2023-01-08T20:54:01.732Z,2.68
2023-01-08T20:56:31.449Z,3.56
2023-01-08T20:58:57.864Z,3.61
2023-01-08T21:01:24.282Z,3.27
2023-01-08T21:03:50.869Z,3.25
2023-01-08T21:06:17.306Z,3.33
2023-01-08T21:08:43.904Z,3.42
2023-01-08T21:11:11.579Z,3.59
2023-01-08T21:13:37.969Z,3.55
2023-01-08T21:16:04.391Z,3.90
2023-01-08T21:18:35.744Z,4.16
2023-01-08T21:21:02.159Z,4.72
2023-01-08T21:23:35.611Z,4.71
2023-01-08T21:26:02.042Z,2.93
2023-01-08T21:28:30.646Z,2.22
2023-01-08T21:31:00.145Z,3.59
2023-01-08T21:33:26.723Z,3.79
2023-01-08T21:35:53.105Z,2.82
2023-01-08T21:38:19.455Z,1.77
2023-01-08T21:40:45.846Z,1.37
2023-01-08T21:43:18.316Z,1.65
2023-01-08T21:45:44.738Z,1.52
2023-01-08T21:48:18.299Z,1.66
2023-01-08T21:50:44.664Z,1.74
2023-01-08T21:53:11.025Z,1.57
2023-01-08T21:55:37.409Z,1.58
2023-01-08T21:58:03.755Z,1.80
2023-01-08T22:00:30.116Z,1.53
2023-01-08T22:02:56.471Z,1.50
2023-01-08T22:05:22.965Z,1.64
2023-01-08T22:07:52.105Z,1.72
2023-01-08T22:10:18.549Z,1.66
2023-01-08T22:12:44.978Z,2.88
2023-01-08T22:15:11.378Z,3.61
2023-01-08T22:17:37.771Z,1.64
2023-01-08T22:20:04.300Z,1.86
2023-01-08T22:22:30.658Z,1.61
2023-01-08T22:24:57.041Z,2.93
2023-01-08T22:27:23.457Z,2.43
2023-01-08T22:29:49.880Z,1.76
2023-01-08T22:32:16.317Z,1.67
2023-01-08T22:34:44.067Z,1.68
2023-01-08T22:37:10.564Z,1.60
2023-01-08T22:39:36.932Z,1.47
2023-01-08T22:42:03.375Z,1.58
2023-01-08T22:44:29.808Z,2.04
2023-01-08T22:46:56.189Z,1.97
2023-01-08T22:49:22.603Z,1.80
2023-01-08T22:51:48.989Z,2.29
2023-01-08T22:54:15.414Z,2.79
2023-01-08T22:56:41.815Z,3.38
2023-01-08T22:59:08.272Z,2.95
2023-01-08T23:01:34.747Z,1.52
2023-01-08T23:04:01.330Z,1.46
2023-01-08T23:06:27.803Z,1.47
2023-01-08T23:08:54.208Z,1.55
2023-01-08T23:11:20.575Z,1.46
2023-01-08T23:13:47.019Z,1.36
2023-01-08T23:16:13.474Z,1.37
2023-01-08T23:18:43.648Z,1.38
2023-01-08T23:21:10.066Z,1.19
2023-01-08T23:23:36.477Z,1.36
2023-01-08T23:26:02.968Z,1.44
2023-01-08T23:28:29.331Z,1.30
2023-01-08T23:30:55.727Z,1.39
2023-01-08T23:33:28.008Z,1.13
2023-01-08T23:35:58.742Z,1.08
2023-01-08T23:38:25.168Z,1.78
2023-01-08T23:40:51.641Z,2.18
2023-01-08T23:43:20.971Z,1.25
2023-01-08T23:45:49.236Z,1.05
2023-01-08T23:48:15.617Z,1.78
2023-01-08T23:50:45.807Z,3.87
2023-01-08T23:53:12.202Z,1.74
2023-01-08T23:55:45.938Z,1.50
2023-01-08T23:58:12.291Z,2.19
